Time;durP1;ratioP1;P1;durP2;ratioP2;P2;SDS_P1;SDS_P2;PMS_P1;PMS_P2;Temp;Humidity;BMP_temperature;BMP_pressure;BME280_temperature;BME280_humidity;BME280_pressure;Samples;Min_cycle;Max_cycle;Signal;HPM_P1;HPM_P2
2022/02/20 00:00:21;;;;;;;4.30;2.72;;;;;;;11.13;42.10;99643.64;1908117;101;25849;-78
2022/02/20 00:03:45;;;;;;;3.67;2.15;;;;;;;11.11;42.12;99650.16;1914274;101;26317;-80
2022/02/20 00:07:06;;;;;;;4.22;2.30;;;;;;;11.08;42.13;99644.04;1916626;95;25536;-78
2022/02/20 00:10:29;;;;;;;3.42;1.77;;;;;;;11.07;42.15;99654.04;2050311;94;25979;-80
2022/02/20 00:14:00;;;;;;;5.33;2.47;;;;;;;11.04;42.14;99643.14;2052336;93;25855;-79
2022/02/20 00:17:22;;;;;;;3.95;2.00;;;;;;;11.03;42.15;99640.06;2013616;96;26039;-81
2022/02/20 00:20:59;;;;;;;5.60;2.00;;;;;;;11.01;42.18;99644.41;2056699;93;29418;-80
2022/02/20 00:24:31;;;;;;;3.60;1.87;;;;;;;11.00;42.20;99653.50;2099236;92;25946;-79
2022/02/20 00:28:42;;;;;;;;;;;;;;;;;;;;;
2022/02/20 00:32:29;;;;;;;5.53;2.02;;;;;;;10.95;42.23;99643.03;2096370;92;25888;-79
2022/02/20 00:36:24;;;;;;;5.78;2.20;;;;;;;10.94;42.25;99633.47;2096464;93;25302;-80
2022/02/20 00:40:20;;;;;;;4.67;2.72;;;;;;;10.92;42.27;99631.27;2077416;93;26309;-79
2022/02/20 00:44:27;;;;;;;5.92;2.45;;;;;;;10.88;42.28;99629.06;2026504;93;33259;-80
2022/02/20 00:48:17;;;;;;;4.87;2.02;;;;;;;10.86;42.29;99619.47;2025116;95;26122;-79
2022/02/20 00:59:39;;;;;;;;;;;;;;;;;;;;;
2022/02/20 01:06:17;;;;;;;3.80;1.80;;;;;;;10.75;42.30;99612.84;1931503;101;25899;-79
2022/02/20 01:09:38;;;;;;;3.67;1.90;;;;;;;10.74;42.29;99612.41;1943711;100;29639;-80
2022/02/20 01:13:24;;;;;;;3.77;1.57;;;;;;;10.74;42.29;99625.88;1940382;101;25869;-80
2022/02/20 01:16:45;;;;;;;4.53;1.95;;;;;;;10.71;42.30;99622.80;1932861;101;25963;-79
2022/02/20 01:20:16;;;;;;;3.67;2.22;;;;;;;10.69;42.26;99620.59;1906268;102;25799;-79
2022/02/20 01:23:43;;;;;;;2.33;1.50;;;;;;;10.67;42.26;99623.62;1874533;104;25921;-79
2022/02/20 01:27:04;;;;;;;3.80;1.90;;;;;;;10.64;42.24;99624.46;1883658;104;30133;-80
2022/02/20 01:30:44;;;;;;;7.37;2.52;;;;;;;10.63;42.24;99615.30;1871480;104;26577;-79
2022/02/20 01:34:01;;;;;;;4.70;2.00;;;;;;;10.60;42.18;99605.75;1865550;103;25966;-78
2022/02/20 01:37:22;;;;;;;4.87;2.25;;;;;;;10.58;42.17;99603.97;1908219;100;25927;-81
2022/02/20 01:41:19;;;;;;;3.37;2.08;;;;;;;10.57;42.14;99606.14;1929725;100;26345;-79
2022/02/20 01:45:04;;;;;;;6.30;1.70;;;;;;;10.55;42.15;99598.28;1922487;100;25968;-78
2022/02/20 01:48:56;;;;;;;;;;;;;;;;;;;;;
2022/02/20 01:52:16;;;;;;;3.33;2.25;;;;;;;10.52;42.10;99586.95;1896963;101;26215;-79
2022/02/20 01:55:56;;;;;;;3.55;1.90;;;;;;;10.50;42.09;99581.74;1898673;102;25928;-79
2022/02/20 01:59:45;;;;;;;2.98;1.90;;;;;;;10.49;42.06;99578.67;1934543;99;25842;-80
2022/02/20 02:03:40;;;;;;;5.92;2.37;;;;;;;10.47;42.05;99576.93;2006636;97;26308;-79
2022/02/20 02:07:55;;;;;;;;;;;;;;;;;;;;;
2022/02/20 02:11:38;;;;;;;5.58;1.85;;;;;;;10.44;41.97;99566.47;1955927;98;26579;-79
2022/02/20 02:15:14;;;;;;;4.60;2.25;;;;;;;10.42;41.98;99555.14;1972456;99;26597;-79
2022/02/20 02:18:52;;;;;;;3.95;1.98;;;;;;;10.38;41.94;99555.11;1937796;100;25959;-79
2022/02/20 02:22:32;;;;;;;4.03;2.17;;;;;;;10.37;41.93;99556.41;1939877;99;25799;-81
2022/02/20 02:25:58;;;;;;;4.87;1.75;;;;;;;10.36;41.87;99537.70;1930658;101;26183;-79
2022/02/20 02:29:24;;;;;;;7.30;2.20;;;;;;;10.33;41.86;99532.05;1936793;99;25958;-78
2022/02/20 02:32:44;;;;;;;6.53;2.10;;;;;;;10.33;41.78;99531.19;1932888;101;25950;-79
2022/02/20 02:36:09;;;;;;;3.90;1.85;;;;;;;10.30;41.75;99522.03;1937559;101;25991;-79
2022/02/20 02:39:45;;;;;;;5.72;2.00;;;;;;;10.30;41.71;99512.48;1930928;101;25837;-78
2022/02/20 02:43:16;;;;;;;5.85;2.45;;;;;;;10.30;41.62;99511.17;1932980;99;26250;-79
2022/02/20 02:46:46;;;;;;;5.20;2.62;;;;;;;10.27;41.60;99498.11;1959591;96;25836;-79
2022/02/20 02:50:32;;;;;;;7.00;2.37;;;;;;;10.26;41.53;99500.28;2041636;96;25787;-77
2022/02/20 02:54:47;;;;;;;4.53;2.13;;;;;;;10.24;41.47;99500.65;2046244;95;25828;-79
2022/02/20 03:02:22;;;;;;;6.80;2.12;;;;;;;10.21;41.40;99498.44;2041617;96;25990;-79
2022/02/20 03:05:57;;;;;;;;;;;;;;;;;;;;;
2022/02/20 03:09:43;;;;;;;5.42;2.70;;;;;;;10.18;41.25;99492.77;1985467;97;26001;-79
2022/02/20 03:13:14;;;;;;;5.92;2.33;;;;;;;10.16;41.23;99479.74;2064571;91;25925;-79
2022/02/20 03:16:59;;;;;;;;;;;;;;;;;;;;;
2022/02/20 03:20:25;;;;;;;5.45;3.02;;;;;;;10.12;41.20;99485.78;2107370;92;25854;-79
2022/02/20 03:24:10;;;;;;;3.92;1.90;;;;;;;10.10;41.19;99482.27;2107723;92;25810;-78
2022/02/20 03:27:34;;;;;;;4.83;1.87;;;;;;;10.07;41.20;99477.46;2138526;89;25899;-79
2022/02/20 03:30:58;;;;;;;5.00;1.80;;;;;;;10.06;41.19;99470.08;2150976;90;25713;-81
2022/02/20 03:34:19;;;;;;;5.00;1.98;;;;;;;10.04;41.17;99465.70;2154783;90;25724;-80
2022/02/20 03:37:42;;;;;;;2.55;1.45;;;;;;;10.02;41.14;99457.86;2156872;90;25848;-79
2022/02/20 03:41:03;;;;;;;4.80;2.17;;;;;;;10.01;41.14;99460.03;2156273;90;28380;-80
2022/02/20 03:44:29;;;;;;;4.25;2.08;;;;;;;9.99;41.13;99446.54;2160538;90;25822;-78
2022/02/20 03:48:10;;;;;;;4.17;2.15;;;;;;;9.97;41.07;99432.22;2159513;90;25743;-79
2022/02/20 03:51:33;;;;;;;5.60;2.17;;;;;;;9.97;41.02;99434.82;2127242;90;25920;-80
2022/02/20 03:55:34;;;;;;;5.08;2.47;;;;;;;9.97;41.03;99433.95;2154145;90;25693;-79
2022/02/20 03:59:33;;;;;;;;;;;;;;;;;;;;;
2022/02/20 04:02:58;;;;;;;7.75;2.70;;;;;;;9.94;40.98;99421.33;2151509;89;25673;-77
2022/02/20 04:06:40;;;;;;;5.67;2.22;;;;;;;9.94;40.90;99423.06;2147936;90;26735;-78
2022/02/20 04:10:24;;;;;;;4.70;1.92;;;;;;;9.93;40.87;99414.39;2146993;90;26067;-78
2022/02/20 04:13:50;;;;;;;3.85;2.05;;;;;;;9.92;40.90;99407.84;2152845;90;25716;-78
2022/02/20 04:17:29;;;;;;;3.63;1.90;;;;;;;9.90;40.85;99410.88;2150254;90;26432;-79
2022/02/20 04:25:27;;;;;;;5.97;2.67;;;;;;;9.89;40.78;99402.20;2155146;88;25794;-80
2022/02/20 04:29:08;;;;;;;4.97;2.20;;;;;;;9.87;40.72;99389.59;2111469;89;25660;-80
2022/02/20 04:32:54;;;;;;;6.50;2.85;;;;;;;9.84;40.70;99377.84;2170781;90;25726;-79
2022/02/20 04:36:37;;;;;;;9.03;3.00;;;;;;;9.85;40.66;99378.70;2169634;90;25723;-79
2022/02/20 04:40:16;;;;;;;5.03;2.58;;;;;;;9.84;40.70;99369.16;2095202;91;25840;-78
2022/02/20 04:44:26;;;;;;;6.70;2.57;;;;;;;9.83;40.58;99356.58;2171106;89;25727;-80
2022/02/20 04:48:04;;;;;;;;;;;;;;;;;;;;;
2022/02/20 04:51:48;;;;;;;3.55;2.02;;;;;;;9.81;40.51;99350.47;2170212;89;25703;-75
2022/02/20 04:55:29;;;;;;;3.92;2.50;;;;;;;9.81;40.48;99345.70;2120007;92;25775;-78
2022/02/20 04:59:25;;;;;;;6.22;2.77;;;;;;;9.81;40.42;99345.27;2111798;91;25387;-79
2022/02/20 05:02:52;;;;;;;6.37;2.55;;;;;;;9.80;40.42;99334.42;2117707;92;25850;-79
2022/02/20 05:06:27;;;;;;;5.60;3.10;;;;;;;9.80;40.45;99333.13;2125651;91;25750;-80
2022/02/20 05:09:52;;;;;;;6.22;4.05;;;;;;;9.80;40.48;99329.65;2099668;92;25889;-78
2022/02/20 05:13:32;;;;;;;4.85;2.42;;;;;;;9.80;40.41;99322.70;2100029;93;25986;-79
2022/02/20 05:17:45;;;;;;;;;;;;;;;;;;;;;
2022/02/20 05:21:19;;;;;;;4.58;2.62;;;;;;;9.82;40.28;99314.50;1870225;102;25944;-78
2022/02/20 05:25:18;;;;;;;;;;;;;;;;;;;;;
2022/02/20 05:37:23;;;;;;;5.58;2.77;;;;;;;9.83;40.24;99315.37;1872007;103;26008;-78
2022/02/20 06:08:30;;;;;;;;;;;;;;;;;;;;;
2022/02/20 06:16:39;;;;;;;4.33;3.02;;;;;;;9.74;40.16;99284.04;1608948;120;26132;-79
2022/02/20 06:20:31;;;;;;;6.85;3.37;;;;;;;9.74;40.13;99286.20;1628658;119;25968;-75
2022/02/20 06:28:02;;;;;;;8.30;3.27;;;;;;;9.80;40.09;99284.97;1842478;106;25890;-79
2022/02/20 06:31:35;;;;;;;10.30;3.70;;;;;;;9.83;40.05;99289.34;1841679;105;26365;-78
2022/02/20 06:34:56;;;;;;;5.25;3.08;;;;;;;9.86;40.03;99293.27;1838231;107;26186;-79
2022/02/20 06:38:20;;;;;;;5.80;3.10;;;;;;;9.89;40.03;99279.85;1841771;107;27257;-80
2022/02/20 06:41:46;;;;;;;7.90;3.20;;;;;;;9.93;40.03;99281.61;1845107;104;25800;-78
2022/02/20 06:45:13;;;;;;;4.45;2.80;;;;;;;9.98;39.95;99267.33;1835321;106;25931;-79
2022/02/20 06:49:19;;;;;;;7.60;3.22;;;;;;;10.02;39.94;99268.22;1847564;105;25996;-79
2022/02/20 06:53:08;;;;;;;6.03;3.08;;;;;;;10.10;40.01;99260.05;1863745;104;25983;-80
2022/02/20 06:56:34;;;;;;;9.53;3.35;;;;;;;10.18;40.03;99255.76;1880344;103;25920;-79
2022/02/20 07:00:10;;;;;;;5.20;3.27;;;;;;;10.25;39.88;99247.55;1863592;104;25875;-78
2022/02/20 07:03:45;;;;;;;8.18;3.50;;;;;;;10.29;39.97;99242.44;1826219;107;26422;-79
2022/02/20 07:07:32;;;;;;;5.92;3.05;;;;;;;10.32;39.94;99240.25;1830161;104;25939;-78
2022/02/20 07:10:55;;;;;;;7.70;3.42;;;;;;;10.34;39.82;99238.11;1847570;105;25864;-79
2022/02/20 07:14:35;;;;;;;5.05;3.25;;;;;;;10.38;39.90;99241.59;1805126;107;25956;-79
2022/02/20 07:18:02;;;;;;;6.58;3.55;;;;;;;10.41;39.91;99244.23;1779801;109;25879;-79
2022/02/20 07:21:35;;;;;;;7.40;3.95;;;;;;;10.47;39.94;99248.17;1781565;110;25912;-78
2022/02/20 07:25:04;;;;;;;7.87;3.30;;;;;;;10.53;40.09;99255.14;1817905;107;26017;-78
2022/02/20 07:28:40;;;;;;;6.03;3.55;;;;;;;10.58;40.11;99251.70;1819188;108;25818;-80
2022/02/20 07:32:12;;;;;;;6.12;3.35;;;;;;;10.67;40.15;99252.20;1818503;103;25929;-79
2022/02/20 07:35:41;;;;;;;9.28;3.95;;;;;;;10.77;40.18;99253.98;1814011;107;25881;-81
2022/02/20 07:39:02;;;;;;;6.15;3.60;;;;;;;10.85;40.08;99250.97;1814983;107;26001;-78
2022/02/20 07:42:31;;;;;;;5.40;3.60;;;;;;;10.96;40.00;99250.14;1821463;107;30043;-79
2022/02/20 07:46:24;;;;;;;5.65;3.70;;;;;;;11.08;39.89;99244.98;1833477;106;26412;-76
2022/02/20 07:49:58;;;;;;;7.00;3.87;;;;;;;11.20;39.70;99249.34;1793781;109;25798;-80
2022/02/20 07:53:30;;;;;;;6.37;4.05;;;;;;;11.35;39.62;99245.05;1794626;108;26053;-84
2022/02/20 07:57:10;;;;;;;7.45;4.70;;;;;;;11.51;39.39;99235.95;1806501;106;25873;-80
2022/02/20 08:00:41;;;;;;;8.88;4.00;;;;;;;11.74;39.26;99243.78;1787012;107;25833;-79
2022/02/20 08:04:10;;;;;;;7.55;3.60;;;;;;;12.04;38.89;99232.50;1787113;109;26047;-79
2022/02/20 08:07:30;;;;;;;8.60;4.03;;;;;;;12.46;38.61;99225.04;1778789;108;31080;-80
2022/02/20 08:11:08;;;;;;;9.58;5.12;;;;;;;12.73;38.25;99220.16;1774684;109;25986;-80
2022/02/20 08:14:32;;;;;;;7.72;4.50;;;;;;;13.02;38.00;99215.22;1779197;107;25951;-83
2022/02/20 08:17:54;;;;;;;9.58;4.97;;;;;;;13.18;37.70;99214.27;1788211;109;31138;-76
2022/02/20 08:21:18;;;;;;;5.90;4.30;;;;;;;13.84;37.45;99199.89;1789161;108;25940;-76
2022/02/20 08:24:39;;;;;;;10.48;3.62;;;;;;;14.97;36.66;99209.17;1771886;110;26096;-77
2022/02/20 08:28:09;;;;;;;9.73;3.52;;;;;;;16.82;44.40;99201.31;1774756;110;31181;-82
2022/02/20 08:31:31;;;;;;;8.18;4.28;;;;;;;18.10;40.54;99196.62;1765177;110;26520;-85
2022/02/20 08:35:18;;;;;;;8.08;4.97;;;;;;;17.33;34.02;99195.81;1788223;109;30972;-86
2022/02/20 08:43:05;;;;;;;6.22;4.40;;;;;;;16.07;31.83;99191.34;1737941;106;25615;-84
2022/02/20 08:47:01;;;;;;;;;;;;;;;;;;;;;
2022/02/20 08:50:42;;;;;;;9.20;6.67;;;;;;;15.94;31.36;99188.06;1715226;111;26082;-82
2022/02/20 08:54:25;;;;;;;26.95;14.00;;;;;;;17.37;30.39;99193.97;1669339;115;26114;-78
2022/02/20 08:58:18;;;;;;;5.03;3.80;;;;;;;18.25;29.05;99188.28;1645582;114;25487;-83
2022/02/20 09:02:16;;;;;;;;;;;;;;;;;;;;;
2022/02/20 09:06:01;;;;;;;;;;;;;;;;;;;;;
2022/02/20 09:09:40;;;;;;;;;;;;;;;;;;;;;
2022/02/20 09:13:25;;;;;;;8.58;4.08;;;;;;;15.23;28.69;99170.77;1624678;119;25932;-85
2022/02/20 09:17:18;;;;;;;;;;;;;;;;;;;;;
2022/02/20 09:25:06;;;;;;;7.15;3.55;;;;;;;13.44;30.57;99168.78;1597187;120;25969;-83
2022/02/20 09:28:59;;;;;;;;;;;;;;;;;;;;;
2022/02/20 09:32:26;;;;;;;8.30;4.08;;;;;;;11.82;31.68;99161.12;1616062;116;27103;-77
2022/02/20 09:35:43;;;;;;;5.33;3.25;;;;;;;11.70;32.26;99156.76;1612639;119;26104;-78
2022/02/20 09:39:06;;;;;;;16.37;3.65;;;;;;;11.65;32.49;99155.91;1591449;123;26142;-76
2022/02/20 09:42:44;;;;;;;5.95;3.37;;;;;;;11.40;33.52;99155.02;1603693;120;26122;-76
2022/02/20 09:46:11;;;;;;;7.70;3.23;;;;;;;11.76;33.79;99153.28;1668614;114;26215;-76
2022/02/20 09:49:37;;;;;;;9.28;4.00;;;;;;;12.11;34.21;99156.30;1727151;111;25934;-77
2022/02/20 09:52:59;;;;;;;7.40;3.47;;;;;;;12.25;34.20;99159.33;1757929;111;26232;-76
2022/02/20 09:56:32;;;;;;;5.70;3.15;;;;;;;12.37;34.62;99168.00;1762814;111;25936;-76
2022/02/20 10:07:55;;;;;;;9.03;7.12;;;;;;;12.52;35.37;99168.83;1807966;108;26314;-78
2022/02/20 10:11:32;;;;;;;8.98;6.95;;;;;;;12.56;35.52;99168.81;1811308;108;25929;-77
2022/02/20 10:15:04;;;;;;;7.55;4.87;;;;;;;12.55;35.78;99171.84;1820575;106;26184;-76
2022/02/20 10:18:27;;;;;;;22.60;15.85;;;;;;;12.49;35.87;99164.91;1833964;106;25820;-76
2022/02/20 10:22:07;;;;;;;16.80;10.40;;;;;;;12.82;37.86;99164.75;1820961;106;25871;-78
2022/02/20 10:25:38;;;;;;;13.58;8.53;;;;;;;12.88;37.46;99165.59;1843666;105;25913;-77
2022/02/20 10:29:21;;;;;;;8.50;7.53;;;;;;;12.85;37.65;99160.82;1814429;107;26715;-77
2022/02/20 10:33:22;;;;;;;;;;;;;;;;;;;;;
2022/02/20 10:37:05;;;;;;;12.78;6.53;;;;;;;12.80;38.11;99154.76;1825507;106;26189;-78
2022/02/20 10:40:37;;;;;;;8.75;6.35;;;;;;;12.81;38.55;99153.88;1835471;106;25845;-77
2022/02/20 10:44:05;;;;;;;7.80;5.70;;;;;;;12.76;38.73;99154.77;1824223;107;26003;-78
2022/02/20 10:47:44;;;;;;;9.43;5.00;;;;;;;12.74;38.95;99153.90;1816330;107;25928;-77
2022/02/20 10:51:11;;;;;;;8.10;4.33;;;;;;;12.68;39.09;99161.77;1811117;108;25847;-78
2022/02/20 10:54:50;;;;;;;4.08;3.33;;;;;;;12.60;39.22;99164.87;1809983;108;25905;-80
2022/02/20 10:58:40;;;;;;;7.73;3.77;;;;;;;12.50;39.32;99162.72;1799991;108;25481;-79
2022/02/20 11:02:27;;;;;;;4.78;3.75;;;;;;;12.44;39.65;99154.90;1826548;102;26042;-79
2022/02/20 11:06:08;;;;;;;5.55;3.47;;;;;;;12.45;40.00;99157.97;1892960;102;25878;-81
2022/02/20 11:09:28;;;;;;;5.75;3.52;;;;;;;12.45;40.29;99161.88;1893969;104;26656;-80
2022/02/20 11:13:02;;;;;;;4.85;3.02;;;;;;;12.43;40.42;99158.84;1899363;104;25780;-77
2022/02/20 11:16:31;;;;;;;6.62;2.75;;;;;;;12.45;40.75;99169.73;1884272;104;25533;-79
2022/02/20 11:20:00;;;;;;;5.33;3.12;;;;;;;12.42;40.96;99176.27;1893977;102;25874;-79
2022/02/20 11:23:58;;;;;;;3.65;2.37;;;;;;;12.32;41.05;99173.25;1896246;104;25342;-79
2022/02/20 11:27:26;;;;;;;3.05;2.70;;;;;;;12.23;41.24;99168.04;1879742;104;26105;-77
2022/02/20 11:30:52;;;;;;;3.27;2.33;;;;;;;12.13;41.58;99165.88;1913202;101;31085;-77
2022/02/20 11:48:07;;;;;;;4.50;3.10;;;;;;;12.59;42.96;99168.77;2501574;78;30876;-76
2022/02/20 11:51:32;;;;;;;2.70;2.20;;;;;;;12.84;46.55;99174.34;2460600;79;25665;-78
2022/02/20 11:55:02;;;;;;;4.75;1.45;;;;;;;13.05;45.71;99147.63;2459642;79;25793;-75
2022/02/20 11:58:26;;;;;;;1.70;1.40;;;;;;;12.95;44.89;99167.30;2422587;80;25657;-73
2022/02/20 12:02:09;;;;;;;3.10;1.60;;;;;;;12.67;44.58;99169.63;2458124;79;25782;-72
2022/02/20 12:05:32;;;;;;;2.70;2.02;;;;;;;12.46;44.75;99169.28;2413084;81;25717;-78
2022/02/20 12:08:57;;;;;;;2.12;1.70;;;;;;;12.36;44.59;99179.34;2414655;81;25525;-74
2022/02/20 12:12:33;;;;;;;3.98;2.35;;;;;;;12.34;44.83;99165.39;2423148;79;25672;-73
2022/02/20 12:15:53;;;;;;;2.72;2.27;;;;;;;12.36;44.90;99167.58;2438211;80;25683;-73
2022/02/20 12:19:40;;;;;;;3.60;1.95;;;;;;;12.36;44.82;99165.83;2438201;80;25723;-74
2022/02/20 12:23:10;;;;;;;3.83;2.77;;;;;;;12.37;44.76;99163.64;2410045;81;25827;-78
2022/02/20 12:27:13;;;;;;;4.35;2.65;;;;;;;12.36;44.80;99164.52;2386646;82;25787;-78
2022/02/20 12:35:51;;;;;;;3.20;2.58;;;;;;;12.37;44.87;99159.72;2302188;85;25745;-79
2022/02/20 12:39:52;;;;;;;4.55;3.33;;;;;;;12.37;44.77;99148.40;2300868;85;25851;-80
2022/02/20 12:43:13;;;;;;;3.40;3.10;;;;;;;12.36;44.72;99151.90;2300182;86;25939;-76
2022/02/20 12:46:34;;;;;;;5.85;3.30;;;;;;;12.38;44.83;99156.66;2256972;87;25699;-76
2022/02/20 12:50:01;;;;;;;6.62;3.62;;;;;;;12.44;44.96;99163.17;2233062;88;30939;-78
2022/02/20 12:54:13;;;;;;;3.77;3.20;;;;;;;12.46;45.08;99155.77;2205365;87;25888;-77
2022/02/20 12:57:37;;;;;;;4.42;2.87;;;;;;;12.48;45.04;99157.06;2264288;87;25835;-77
2022/02/20 13:05:41;;;;;;;2.90;2.60;;;;;;;12.49;44.90;99153.16;2198694;88;25766;-80
2022/02/20 13:09:13;;;;;;;3.77;3.22;;;;;;;12.45;44.88;99153.15;2236272;88;25748;-80
2022/02/20 13:13:22;;;;;;;4.62;2.83;;;;;;;12.47;44.94;99161.42;2183209;90;25851;-80
2022/02/20 13:17:17;;;;;;;9.45;3.50;;;;;;;12.49;45.22;99159.69;2183331;90;25745;-80
2022/02/20 13:21:23;;;;;;;9.83;3.17;;;;;;;12.52;45.54;99161.42;2147268;92;26076;-81
2022/02/20 13:25:20;;;;;;;4.10;3.70;;;;;;;12.53;45.59;99157.92;2095001;94;25389;-82
2022/02/20 13:28:59;;;;;;;5.53;3.65;;;;;;;12.53;45.92;99155.31;2095190;94;25781;-83
2022/02/20 13:32:52;;;;;;;4.45;2.67;;;;;;;12.52;46.10;99158.37;2075566;94;25646;-79
2022/02/20 13:36:40;;;;;;;4.75;2.95;;;;;;;12.51;46.11;99159.22;2094727;94;25786;-79
2022/02/20 13:40:49;;;;;;;5.45;3.30;;;;;;;12.52;46.55;99161.42;2076362;93;26067;-80
2022/02/20 13:48:38;;;;;;;4.15;3.85;;;;;;;12.53;46.54;99156.17;1933636;100;25793;-79
2022/02/20 13:52:19;;;;;;;7.47;4.20;;;;;;;12.56;46.12;99155.30;1916375;101;25887;-81
2022/02/20 13:56:15;;;;;;;9.23;4.10;;;;;;;12.56;46.65;99156.61;1859328;105;25898;-78
2022/02/20 14:04:04;;;;;;;;;;;;;;;;;;;;;
2022/02/20 14:07:55;;;;;;;6.22;5.10;;;;;;;12.58;48.56;99159.20;1885356;104;25809;-81
2022/02/20 14:11:36;;;;;;;7.33;4.28;;;;;;;12.60;49.39;99159.64;1885366;104;25919;-79
2022/02/20 14:15:33;;;;;;;7.22;4.35;;;;;;;12.59;49.67;99166.16;1906951;102;25851;-80
2022/02/20 14:19:45;;;;;;;4.72;4.30;;;;;;;12.55;49.76;99171.84;1925154;102;25901;-80
2022/02/20 14:23:36;;;;;;;;;;;;;;;;;;;;;
2022/02/20 14:27:35;;;;;;;3.70;3.35;;;;;;;12.58;50.13;99157.89;1847383;107;25817;-80
2022/02/20 14:31:46;;;;;;;;;;;;;;;;;;;;;
2022/02/20 14:35:45;;;;;;;;;;;;;;;;;;;;;
2022/02/20 14:39:23;;;;;;;7.70;3.20;;;;;;;12.57;50.02;99158.34;1789642;109;25914;-80
2022/02/20 14:43:10;;;;;;;3.87;3.47;;;;;;;12.60;49.98;99164.00;1811511;109;25820;-80
2022/02/20 14:50:39;;;;;;;;;;;;;;;;;;;;;
2022/02/20 14:54:23;;;;;;;7.40;3.17;;;;;;;12.51;49.22;99163.59;1780013;109;25969;-80
2022/02/20 14:58:03;;;;;;;4.00;3.62;;;;;;;12.50;48.99;99160.55;1832626;106;25838;-80
2022/02/20 15:02:08;;;;;;;3.25;2.95;;;;;;;12.47;48.96;99158.81;1845481;107;25826;-79
2022/02/20 15:06:02;;;;;;;14.30;6.72;;;;;;;12.45;48.98;99167.52;1826363;106;25952;-79
2022/02/20 15:09:58;;;;;;;;;;;;;;;;;;;;;
2022/02/20 15:13:26;;;;;;;18.45;10.68;;;;;;;12.38;48.60;99158.83;1939412;101;25781;-81
2022/02/20 15:17:48;;;;;;;14.70;8.70;;;;;;;12.33;48.42;99163.22;1935898;101;25903;-81
2022/02/20 15:26:04;;;;;;;8.35;5.47;;;;;;;12.23;48.47;99153.67;1992091;99;25817;-81
2022/02/20 15:30:10;;;;;;;6.65;5.28;;;;;;;12.19;48.35;99159.78;1999988;98;25838;-77
2022/02/20 15:34:11;;;;;;;;;;;;;;;;;;;;;
2022/02/20 15:38:03;;;;;;;5.10;4.00;;;;;;;12.02;47.92;99146.31;1932556;101;25963;-78
2022/02/20 15:41:52;;;;;;;5.75;4.00;;;;;;;11.95;47.87;99148.52;1902340;102;25942;-80
2022/02/20 15:45:58;;;;;;;6.17;3.77;;;;;;;11.89;47.74;99139.82;1920600;101;25843;-77
2022/02/20 15:49:28;;;;;;;8.08;3.22;;;;;;;11.87;47.89;99142.86;1955936;99;25768;-77
2022/02/20 15:53:18;;;;;;;4.58;2.70;;;;;;;11.83;48.04;99136.30;1968317;99;25855;-78
2022/02/20 15:56:49;;;;;;;5.85;3.67;;;;;;;11.81;47.98;99135.45;1986918;98;25862;-79
2022/02/20 16:00:30;;;;;;;4.80;3.08;;;;;;;11.77;47.96;99133.69;1988808;98;25838;-78
2022/02/20 16:04:00;;;;;;;6.58;3.58;;;;;;;11.75;48.00;99128.92;1972563;99;25818;-79
2022/02/20 16:07:47;;;;;;;4.12;3.62;;;;;;;11.69;47.80;99121.09;1990253;98;25730;-79
2022/02/20 16:11:33;;;;;;;3.40;3.05;;;;;;;11.58;47.65;99122.41;1994175;98;25541;-82
2022/02/20 16:18:35;;;;;;;5.35;4.85;;;;;;;11.43;47.47;99112.41;1861560;106;25897;-79
2022/02/20 16:22:26;;;;;;;8.28;6.22;;;;;;;11.37;47.40;99110.66;1824382;107;25929;-79
2022/02/20 16:25:49;;;;;;;6.50;5.03;;;;;;;11.29;47.32;99111.97;1836478;106;25864;-81
2022/02/20 16:29:21;;;;;;;4.80;3.90;;;;;;;11.23;47.28;99107.18;1846737;105;29799;-78
2022/02/20 16:32:39;;;;;;;6.00;4.00;;;;;;;11.16;47.30;99096.31;1882817;104;25940;-78
2022/02/20 16:36:29;;;;;;;3.52;3.08;;;;;;;11.10;47.30;99099.77;1881478;104;25870;-79
2022/02/20 16:40:00;;;;;;;4.95;3.20;;;;;;;11.03;47.31;99089.77;1873923;104;25467;-80
2022/02/20 16:43:42;;;;;;;3.40;3.10;;;;;;;10.98;47.30;99085.00;1869773;104;26433;-79
2022/02/20 16:47:53;;;;;;;;;;;;;;;;;;;;;
2022/02/20 16:51:36;;;;;;;4.08;2.75;;;;;;;10.88;47.36;99079.34;1996115;94;25825;-80
2022/02/20 16:55:39;;;;;;;;;;;;;;;;;;;;;
2022/02/20 16:59:55;;;;;;;4.03;2.77;;;;;;;10.76;47.44;99076.70;2196826;87;25692;-81
2022/02/20 17:03:11;;;;;;;6.33;4.03;;;;;;;10.69;47.49;99074.52;2130517;91;25717;-78
2022/02/20 17:06:37;;;;;;;4.65;3.80;;;;;;;10.62;47.50;99075.38;2133447;91;25758;-72
2022/02/20 17:09:57;;;;;;;4.42;4.03;;;;;;;10.57;47.54;99063.64;2138153;91;25759;-74
2022/02/20 17:13:23;;;;;;;6.22;4.80;;;;;;;10.52;47.53;99054.94;2137346;91;26444;-74
2022/02/20 17:16:45;;;;;;;7.28;5.42;;;;;;;10.46;47.61;99065.77;2137808;92;25876;-77
2022/02/20 17:20:15;;;;;;;6.15;5.45;;;;;;;10.40;47.68;99058.83;2137321;91;25735;-76
2022/02/20 17:23:38;;;;;;;9.25;6.25;;;;;;;10.34;47.80;99054.45;2137763;92;25755;-78
2022/02/20 17:27:07;;;;;;;7.83;6.17;;;;;;;10.31;47.93;99054.88;2137029;91;29770;-75
2022/02/20 17:30:31;;;;;;;5.95;5.40;;;;;;;10.27;47.91;99050.53;2140052;91;25862;-78
2022/02/20 17:33:54;;;;;;;11.05;4.28;;;;;;;10.08;47.94;99050.41;2161941;90;25696;-76
2022/02/20 17:37:15;;;;;;;7.62;5.30;;;;;;;10.04;51.48;99051.27;2178490;86;26154;-78
2022/02/20 17:40:41;;;;;;;6.85;6.15;;;;;;;10.79;52.08;99042.82;2241865;88;30877;-79
2022/02/20 17:44:05;;;;;;;8.63;5.20;;;;;;;10.93;50.26;99032.41;2268211;86;26120;-77
2022/02/20 17:51:01;;;;;;;10.63;7.03;;;;;;;10.92;49.54;99020.25;2172040;88;25881;-83
2022/02/20 17:54:22;;;;;;;8.88;7.45;;;;;;;10.88;49.18;99018.07;2221319;88;25886;-79
2022/02/20 17:57:47;;;;;;;8.13;6.40;;;;;;;10.80;48.87;99018.48;2224052;88;31558;-79
2022/02/20 18:01:10;;;;;;;10.55;6.65;;;;;;;10.77;48.64;99015.47;2226038;88;25904;-78
2022/02/20 18:04:37;;;;;;;7.30;5.90;;;;;;;10.70;48.43;99016.33;2226683;88;25747;-80
2022/02/20 18:08:01;;;;;;;7.87;6.87;;;;;;;10.66;48.35;99017.17;2224363;88;26135;-78
2022/02/20 18:11:29;;;;;;;8.73;6.12;;;;;;;10.68;48.28;99010.23;2221094;88;26403;-78
2022/02/20 18:14:53;;;;;;;8.80;5.90;;;;;;;10.72;48.15;99004.15;2226814;87;31008;-78
2022/02/20 18:18:29;;;;;;;10.10;5.95;;;;;;;10.75;48.09;99001.55;2226231;88;25899;-79
2022/02/20 18:22:09;;;;;;;9.15;5.60;;;;;;;10.77;47.99;99008.95;2219967;88;25913;-79
2022/02/20 18:25:42;;;;;;;7.12;6.40;;;;;;;10.77;47.89;98989.40;2220078;89;25799;-78
2022/02/20 18:29:09;;;;;;;7.20;6.58;;;;;;;10.76;47.82;98994.16;2220184;89;25929;-78
2022/02/20 18:32:42;;;;;;;7.33;6.62;;;;;;;10.74;47.77;98992.00;2221517;88;26544;-75
2022/02/20 18:36:03;;;;;;;7.78;6.83;;;;;;;10.72;47.74;98971.57;2225524;88;25903;-75
2022/02/20 18:43:29;;;;;;;7.45;6.33;;;;;;;10.67;47.74;98970.72;2087125;94;25835;-75
2022/02/20 18:47:15;;;;;;;7.00;6.33;;;;;;;10.63;47.78;98972.86;2102509;93;26614;-75
2022/02/20 18:50:58;;;;;;;7.25;6.40;;;;;;;10.59;47.84;98970.69;2055762;94;25739;-78
2022/02/20 18:54:30;;;;;;;7.10;6.42;;;;;;;10.56;47.92;98973.32;2040625;95;26254;-75
2022/02/20 18:58:13;;;;;;;7.78;6.05;;;;;;;10.54;48.00;98960.70;2058237;95;26332;-74
2022/02/20 19:02:05;;;;;;;7.97;6.17;;;;;;;10.53;48.13;98960.69;2131245;92;26501;-76
2022/02/20 19:06:15;;;;;;;7.30;5.53;;;;;;;10.53;48.24;98955.48;2111594;93;25823;-76
2022/02/20 19:09:36;;;;;;;8.35;6.67;;;;;;;10.52;48.36;98941.59;2093205;93;25865;-75
2022/02/20 19:12:57;;;;;;;7.80;5.50;;;;;;;10.53;48.46;98937.24;2089109;93;35431;-78
2022/02/20 19:16:19;;;;;;;6.28;4.85;;;;;;;10.54;48.54;98929.88;2143432;92;25940;-80
2022/02/20 19:19:46;;;;;;;8.50;5.90;;;;;;;10.55;48.64;98917.28;2142288;92;25759;-81
2022/02/20 19:23:15;;;;;;;6.12;5.20;;;;;;;10.55;48.73;98904.25;2147026;92;29133;-79
2022/02/20 19:26:56;;;;;;;5.87;5.28;;;;;;;10.55;48.81;98898.59;2147478;92;25805;-77
2022/02/20 19:30:27;;;;;;;6.80;5.03;;;;;;;10.55;48.90;98879.49;2146988;92;25869;-74
2022/02/20 19:34:02;;;;;;;7.17;5.10;;;;;;;10.55;48.98;98861.25;2147273;92;26458;-79
2022/02/20 19:37:30;;;;;;;6.47;5.00;;;;;;;10.55;49.07;98857.34;2127782;92;25819;-76
2022/02/20 19:40:57;;;;;;;6.30;4.65;;;;;;;10.54;49.13;98842.59;2147138;92;25754;-78
2022/02/20 19:44:26;;;;;;;6.72;4.60;;;;;;;10.55;49.19;98841.27;2194907;90;25813;-79
2022/02/20 19:47:49;;;;;;;7.87;4.22;;;;;;;10.56;49.26;98828.70;2246821;87;25826;-80
2022/02/20 19:51:20;;;;;;;5.60;4.25;;;;;;;10.56;49.31;98827.40;2256912;87;25741;-76
2022/02/20 19:54:44;;;;;;;5.40;4.12;;;;;;;10.57;49.38;98828.27;2225779;87;25798;-74
2022/02/20 19:58:08;;;;;;;4.58;3.80;;;;;;;10.56;49.45;98819.58;2285605;86;25852;-78